sensor_id;sensor_type;location;lat;lon;timestamp;pressure;altitude;pressure_sealevel;temperature;humidity
44926;BME280;30662;51.210;7.656;2023-04-28T00:00:28;151152.06;;;9.41;72.86
44926;BME280;30662;51.210;7.656;2023-04-28T00:02:54;151140.69;;;9.36;75.78
44926;BME280;30662;51.210;7.656;2023-04-28T00:05:20;151133.09;;;9.33;76.13
44926;BME280;30662;51.210;7.656;2023-04-28T00:07:48;151121.72;;;9.29;76.75
44926;BME280;30662;51.210;7.656;2023-04-28T00:10:14;151116.63;;;9.27;77.90
44926;BME280;30662;51.210;7.656;2023-04-28T00:12:40;151112.84;;;9.25;79.92
44926;BME280;30662;51.210;7.656;2023-04-28T00:15:06;151102.75;;;9.21;79.70
44926;BME280;30662;51.210;7.656;2023-04-28T00:17:32;151105.28;;;9.22;82.61
44926;BME280;30662;51.210;7.656;2023-04-28T00:19:58;151102.75;;;9.21;81.86
44926;BME280;30662;51.210;7.656;2023-04-28T00:22:24;151131.81;;;9.33;82.80
44926;BME280;30662;51.210;7.656;2023-04-28T00:24:49;151121.72;;;9.29;81.51
44926;BME280;30662;51.210;7.656;2023-04-28T00:27:15;151129.31;;;9.32;80.49
44926;BME280;30662;51.210;7.656;2023-04-28T00:29:41;151144.47;;;9.38;82.14
44926;BME280;30662;51.210;7.656;2023-04-28T00:32:08;151116.63;;;9.27;80.38
44926;BME280;30662;51.210;7.656;2023-04-28T00:34:33;151123.00;;;9.29;82.59
44926;BME280;30662;51.210;7.656;2023-04-28T00:37:02;151112.84;;;9.25;82.10
44926;BME280;30662;51.210;7.656;2023-04-28T00:39:29;151087.59;;;9.15;82.71
44926;BME280;30662;51.210;7.656;2023-04-28T00:41:55;151104.03;;;9.22;83.67
44926;BME280;30662;51.210;7.656;2023-04-28T00:44:20;151096.41;;;9.19;90.28
44926;BME280;30662;51.210;7.656;2023-04-28T00:46:46;151073.66;;;9.09;85.76
44926;BME280;30662;51.210;7.656;2023-04-28T00:49:14;151071.13;;;9.08;92.42
44926;BME280;30662;51.210;7.656;2023-04-28T00:51:40;151079.97;;;9.12;94.78
44926;BME280;30662;51.210;7.656;2023-04-28T00:54:06;151086.31;;;9.15;95.67
44926;BME280;30662;51.210;7.656;2023-04-28T00:56:32;151034.47;;;8.94;99.88
44926;BME280;30662;51.210;7.656;2023-04-28T00:58:58;151014.25;;;8.86;100.00
44926;BME280;30662;51.210;7.656;2023-04-28T01:01:24;150995.28;;;8.78;100.00
44926;BME280;30662;51.210;7.656;2023-04-28T01:03:50;150975.06;;;8.70;100.00
44926;BME280;30662;51.210;7.656;2023-04-28T01:06:16;150968.72;;;8.67;100.00
44926;BME280;30662;51.210;7.656;2023-04-28T01:08:47;150971.22;;;8.68;100.00
44926;BME280;30662;51.210;7.656;2023-04-28T01:11:13;150969.97;;;8.68;100.00
44926;BME280;30662;51.210;7.656;2023-04-28T01:13:39;150982.63;;;8.73;100.00
44926;BME280;30662;51.210;7.656;2023-04-28T01:16:06;150961.16;;;8.64;100.00
44926;BME280;30662;51.210;7.656;2023-04-28T01:18:32;150937.09;;;8.54;100.00
44926;BME280;30662;51.210;7.656;2023-04-28T01:20:59;150951.00;;;8.60;100.00
44926;BME280;30662;51.210;7.656;2023-04-28T01:23:25;150919.44;;;8.47;100.00
44926;BME280;30662;51.210;7.656;2023-04-28T01:25:51;150916.88;;;8.46;100.00
44926;BME280;30662;51.210;7.656;2023-04-28T01:28:17;150947.22;;;8.59;100.00
44926;BME280;30662;51.210;7.656;2023-04-28T01:30:42;150959.88;;;8.64;100.00
44926;BME280;30662;51.210;7.656;2023-04-28T01:33:08;150949.75;;;8.60;100.00
44926;BME280;30662;51.210;7.656;2023-04-28T01:35:34;150951.00;;;8.60;100.00
44926;BME280;30662;51.210;7.656;2023-04-28T01:38:00;150944.72;;;8.57;100.00
44926;BME280;30662;51.210;7.656;2023-04-28T01:40:26;150958.63;;;8.63;100.00
44926;BME280;30662;51.210;7.656;2023-04-28T01:42:52;150959.88;;;8.64;100.00
44926;BME280;30662;51.210;7.656;2023-04-28T01:45:18;150977.59;;;8.71;100.00
44926;BME280;30662;51.210;7.656;2023-04-28T01:47:44;150977.59;;;8.71;100.00
44926;BME280;30662;51.210;7.656;2023-04-28T01:50:10;150972.50;;;8.69;100.00
44926;BME280;30662;51.210;7.656;2023-04-28T01:52:36;150964.94;;;8.66;100.00
44926;BME280;30662;51.210;7.656;2023-04-28T01:58:24;150967.44;;;8.67;100.00
44926;BME280;30662;51.210;7.656;2023-04-28T02:00:50;150942.19;;;8.56;100.00
44926;BME280;30662;51.210;7.656;2023-04-28T02:03:16;150944.72;;;8.57;100.00
44926;BME280;30662;51.210;7.656;2023-04-28T02:05:42;150949.75;;;8.60;100.00
44926;BME280;30662;51.210;7.656;2023-04-28T02:08:08;150919.44;;;8.47;100.00
44926;BME280;30662;51.210;7.656;2023-04-28T02:10:34;150906.78;;;8.42;100.00
44926;BME280;30662;51.210;7.656;2023-04-28T02:13:00;150884.00;;;8.33;100.00
44926;BME280;30662;51.210;7.656;2023-04-28T02:15:25;150881.44;;;8.32;100.00
44926;BME280;30662;51.210;7.656;2023-04-28T02:17:51;150866.31;;;8.26;100.00
44926;BME280;30662;51.210;7.656;2023-04-28T02:20:18;150859.97;;;8.23;100.00
44926;BME280;30662;51.210;7.656;2023-04-28T02:22:44;150848.63;;;8.19;100.00
44926;BME280;30662;51.210;7.656;2023-04-28T02:25:10;150877.66;;;8.30;100.00
44926;BME280;30662;51.210;7.656;2023-04-28T02:27:35;150847.31;;;8.18;100.00
44926;BME280;30662;51.210;7.656;2023-04-28T02:30:03;150819.53;;;8.07;100.00
44926;BME280;30662;51.210;7.656;2023-04-28T02:32:30;150829.66;;;8.11;100.00
44926;BME280;30662;51.210;7.656;2023-04-28T02:34:56;150809.41;;;8.03;100.00
44926;BME280;30662;51.210;7.656;2023-04-28T02:37:22;150815.75;;;8.06;100.00
44926;BME280;30662;51.210;7.656;2023-04-28T02:39:48;150810.66;;;8.03;100.00
44926;BME280;30662;51.210;7.656;2023-04-28T02:42:14;150819.53;;;8.07;100.00
44926;BME280;30662;51.210;7.656;2023-04-28T02:44:40;150810.66;;;8.03;100.00
44926;BME280;30662;51.210;7.656;2023-04-28T02:47:06;150795.53;;;7.97;100.00
44926;BME280;30662;51.210;7.656;2023-04-28T02:49:32;150779.13;;;7.91;100.00
44926;BME280;30662;51.210;7.656;2023-04-28T02:51:58;150828.34;;;8.11;100.00
44926;BME280;30662;51.210;7.656;2023-04-28T02:54:24;150822.06;;;8.08;100.00
44926;BME280;30662;51.210;7.656;2023-04-28T02:56:53;150820.78;;;8.08;100.00
44926;BME280;30662;51.210;7.656;2023-04-28T02:59:20;150823.31;;;8.09;100.00
44926;BME280;30662;51.210;7.656;2023-04-28T03:01:46;150818.28;;;8.07;100.00
44926;BME280;30662;51.210;7.656;2023-04-28T03:04:13;150809.41;;;8.03;100.00
44926;BME280;30662;51.210;7.656;2023-04-28T03:06:40;150815.75;;;8.06;100.00
44926;BME280;30662;51.210;7.656;2023-04-28T03:09:06;150809.41;;;8.03;100.00
44926;BME280;30662;51.210;7.656;2023-04-28T03:11:32;150796.81;;;7.98;100.00
44926;BME280;30662;51.210;7.656;2023-04-28T03:13:58;150785.41;;;7.93;100.00
44926;BME280;30662;51.210;7.656;2023-04-28T03:16:24;150799.31;;;7.99;100.00
44926;BME280;30662;51.210;7.656;2023-04-28T03:18:50;150803.09;;;8.00;100.00
44926;BME280;30662;51.210;7.656;2023-04-28T03:21:16;150780.38;;;7.91;100.00
44926;BME280;30662;51.210;7.656;2023-04-28T03:23:42;150751.28;;;7.80;100.00
44926;BME280;30662;51.210;7.656;2023-04-28T03:26:07;150770.25;;;7.87;100.00
44926;BME280;30662;51.210;7.656;2023-04-28T03:28:33;150767.72;;;7.86;100.00
44926;BME280;30662;51.210;7.656;2023-04-28T03:30:59;150766.47;;;7.86;100.00
44926;BME280;30662;51.210;7.656;2023-04-28T03:33:25;150760.16;;;7.83;100.00
44926;BME280;30662;51.210;7.656;2023-04-28T03:35:51;150789.19;;;7.95;100.00
44926;BME280;30662;51.210;7.656;2023-04-28T03:38:18;150782.91;;;7.92;100.00
44926;BME280;30662;51.210;7.656;2023-04-28T03:40:44;150782.91;;;7.92;100.00
44926;BME280;30662;51.210;7.656;2023-04-28T03:43:10;150789.19;;;7.95;100.00
44926;BME280;30662;51.210;7.656;2023-04-28T03:45:36;150787.94;;;7.94;100.00
44926;BME280;30662;51.210;7.656;2023-04-28T03:48:02;150771.50;;;7.88;100.00
44926;BME280;30662;51.210;7.656;2023-04-28T03:50:28;150772.75;;;7.88;100.00
44926;BME280;30662;51.210;7.656;2023-04-28T03:52:54;150767.72;;;7.86;100.00
44926;BME280;30662;51.210;7.656;2023-04-28T03:55:20;150753.81;;;7.81;100.00
44926;BME280;30662;51.210;7.656;2023-04-28T03:57:46;150772.75;;;7.88;100.00
44926;BME280;30662;51.210;7.656;2023-04-28T04:00:12;150750.03;;;7.79;100.00
44926;BME280;30662;51.210;7.656;2023-04-28T04:02:38;150742.47;;;7.76;100.00
44926;BME280;30662;51.210;7.656;2023-04-28T04:05:04;150734.88;;;7.73;100.00
44926;BME280;30662;51.210;7.656;2023-04-28T04:07:31;150753.81;;;7.81;100.00
44926;BME280;30662;51.210;7.656;2023-04-28T04:09:56;150789.19;;;7.95;100.00
44926;BME280;30662;51.210;7.656;2023-04-28T04:12:22;150753.81;;;7.81;100.00
44926;BME280;30662;51.210;7.656;2023-04-28T04:14:48;150789.19;;;7.95;100.00
44926;BME280;30662;51.210;7.656;2023-04-28T04:17:14;150789.19;;;7.95;100.00
44926;BME280;30662;51.210;7.656;2023-04-28T04:19:41;150739.97;;;7.75;100.00
44926;BME280;30662;51.210;7.656;2023-04-28T04:22:07;150745.00;;;7.77;100.00
44926;BME280;30662;51.210;7.656;2023-04-28T04:24:33;150723.53;;;7.68;100.00
44926;BME280;30662;51.210;7.656;2023-04-28T04:26:59;150728.56;;;7.70;100.00
44926;BME280;30662;51.210;7.656;2023-04-28T04:29:25;150750.03;;;7.79;100.00
44926;BME280;30662;51.210;7.656;2023-04-28T04:31:50;150770.25;;;7.87;100.00
44926;BME280;30662;51.210;7.656;2023-04-28T04:34:16;150776.59;;;7.90;100.00
44926;BME280;30662;51.210;7.656;2023-04-28T04:36:43;150766.47;;;7.86;100.00
44926;BME280;30662;51.210;7.656;2023-04-28T04:39:08;150776.59;;;7.90;100.00
44926;BME280;30662;51.210;7.656;2023-04-28T04:41:34;150772.75;;;7.88;100.00
44926;BME280;30662;51.210;7.656;2023-04-28T04:44:00;150750.03;;;7.79;100.00
44926;BME280;30662;51.210;7.656;2023-04-28T04:46:26;150785.41;;;7.93;100.00
44926;BME280;30662;51.210;7.656;2023-04-28T04:48:52;150772.75;;;7.88;100.00
44926;BME280;30662;51.210;7.656;2023-04-28T04:51:18;150755.06;;;7.81;100.00
44926;BME280;30662;51.210;7.656;2023-04-28T04:53:44;150756.34;;;7.82;100.00
44926;BME280;30662;51.210;7.656;2023-04-28T04:56:10;150750.03;;;7.79;100.00
44926;BME280;30662;51.210;7.656;2023-04-28T04:58:35;150741.22;;;7.76;100.00
44926;BME280;30662;51.210;7.656;2023-04-28T05:01:02;150766.47;;;7.86;100.00
44926;BME280;30662;51.210;7.656;2023-04-28T05:03:28;150742.47;;;7.76;100.00
44926;BME280;30662;51.210;7.656;2023-04-28T05:05:54;150758.91;;;7.83;100.00
44926;BME280;30662;51.210;7.656;2023-04-28T05:08:20;150756.34;;;7.82;100.00
44926;BME280;30662;51.210;7.656;2023-04-28T05:10:46;150776.59;;;7.90;100.00
44926;BME280;30662;51.210;7.656;2023-04-28T05:13:12;150786.69;;;7.94;100.00
44926;BME280;30662;51.210;7.656;2023-04-28T05:15:38;150803.09;;;8.00;100.00
44926;BME280;30662;51.210;7.656;2023-04-28T05:18:04;150790.47;;;7.95;100.00
44926;BME280;30662;51.210;7.656;2023-04-28T05:20:35;150818.28;;;8.07;100.00
44926;BME280;30662;51.210;7.656;2023-04-28T05:23:01;150801.84;;;8.00;100.00
44926;BME280;30662;51.210;7.656;2023-04-28T05:25:27;150805.63;;;8.01;100.00
44926;BME280;30662;51.210;7.656;2023-04-28T05:27:55;150795.53;;;7.97;100.00
44926;BME280;30662;51.210;7.656;2023-04-28T05:30:21;150776.59;;;7.90;100.00
44926;BME280;30662;51.210;7.656;2023-04-28T05:32:46;150791.72;;;7.96;100.00
44926;BME280;30662;51.210;7.656;2023-04-28T05:35:12;150782.91;;;7.92;100.00
44926;BME280;30662;51.210;7.656;2023-04-28T05:37:39;150833.44;;;8.13;100.00
44926;BME280;30662;51.210;7.656;2023-04-28T05:40:08;150822.06;;;8.08;100.00
44926;BME280;30662;51.210;7.656;2023-04-28T05:42:34;150814.50;;;8.05;100.00
44926;BME280;30662;51.210;7.656;2023-04-28T05:45:00;150828.34;;;8.11;100.00
44926;BME280;30662;51.210;7.656;2023-04-28T05:47:27;150809.41;;;8.03;100.00
44926;BME280;30662;51.210;7.656;2023-04-28T05:49:54;150833.44;;;8.13;100.00
44926;BME280;30662;51.210;7.656;2023-04-28T05:52:20;150795.53;;;7.97;100.00
44926;BME280;30662;51.210;7.656;2023-04-28T05:54:45;150808.16;;;8.02;100.00
44926;BME280;30662;51.210;7.656;2023-04-28T05:57:11;150842.28;;;8.16;100.00
44926;BME280;30662;51.210;7.656;2023-04-28T05:59:37;150842.28;;;8.16;100.00
44926;BME280;30662;51.210;7.656;2023-04-28T06:02:03;150862.47;;;8.24;100.00
44926;BME280;30662;51.210;7.656;2023-04-28T06:04:29;150878.91;;;8.31;100.00
44926;BME280;30662;51.210;7.656;2023-04-28T06:06:55;150866.31;;;8.26;100.00
44926;BME280;30662;51.210;7.656;2023-04-28T06:09:21;150877.66;;;8.30;100.00
44926;BME280;30662;51.210;7.656;2023-04-28T06:11:47;150876.41;;;8.30;100.00
44926;BME280;30662;51.210;7.656;2023-04-28T06:14:13;150857.44;;;8.22;100.00
44926;BME280;30662;51.210;7.656;2023-04-28T06:16:39;150863.75;;;8.25;100.00
44926;BME280;30662;51.210;7.656;2023-04-28T06:19:05;150905.53;;;8.42;100.00
44926;BME280;30662;51.210;7.656;2023-04-28T06:21:31;150904.28;;;8.41;100.00
44926;BME280;30662;51.210;7.656;2023-04-28T06:23:58;150914.34;;;8.45;100.00
44926;BME280;30662;51.210;7.656;2023-04-28T06:26:23;150915.63;;;8.46;100.00
44926;BME280;30662;51.210;7.656;2023-04-28T06:28:50;150921.97;;;8.48;100.00
44926;BME280;30662;51.210;7.656;2023-04-28T06:31:15;150914.34;;;8.45;100.00
44926;BME280;30662;51.210;7.656;2023-04-28T06:33:41;150897.91;;;8.39;100.00
44926;BME280;30662;51.210;7.656;2023-04-28T06:36:07;150890.34;;;8.36;100.00
44926;BME280;30662;51.210;7.656;2023-04-28T06:38:33;150925.75;;;8.50;100.00
44926;BME280;30662;51.210;7.656;2023-04-28T06:40:59;150932.06;;;8.52;100.00
44926;BME280;30662;51.210;7.656;2023-04-28T06:43:25;150940.91;;;8.56;100.00
44926;BME280;30662;51.210;7.656;2023-04-28T06:45:51;150940.91;;;8.56;100.00
44926;BME280;30662;51.210;7.656;2023-04-28T06:48:17;150976.31;;;8.70;100.00
44926;BME280;30662;51.210;7.656;2023-04-28T06:50:43;150980.09;;;8.72;100.00
44926;BME280;30662;51.210;7.656;2023-04-28T06:53:09;150977.59;;;8.71;100.00
44926;BME280;30662;51.210;7.656;2023-04-28T06:55:35;150957.38;;;8.63;100.00
44926;BME280;30662;51.210;7.656;2023-04-28T06:58:01;150944.72;;;8.57;100.00
44926;BME280;30662;51.210;7.656;2023-04-28T07:00:27;150910.56;;;8.44;100.00
44926;BME280;30662;51.210;7.656;2023-04-28T07:02:52;150959.88;;;8.64;100.00
44926;BME280;30662;51.210;7.656;2023-04-28T07:05:18;150929.53;;;8.51;100.00
44926;BME280;30662;51.210;7.656;2023-04-28T07:07:44;150918.13;;;8.47;100.00
44926;BME280;30662;51.210;7.656;2023-04-28T07:10:10;150901.75;;;8.40;100.00
44926;BME280;30662;51.210;7.656;2023-04-28T07:12:36;150918.13;;;8.47;100.00
44926;BME280;30662;51.210;7.656;2023-04-28T07:15:02;150935.84;;;8.54;100.00
44926;BME280;30662;51.210;7.656;2023-04-28T07:17:28;150959.88;;;8.64;100.00
44926;BME280;30662;51.210;7.656;2023-04-28T07:19:54;150954.78;;;8.62;100.00
44926;BME280;30662;51.210;7.656;2023-04-28T07:22:20;150975.06;;;8.70;100.00
44926;BME280;30662;51.210;7.656;2023-04-28T07:24:46;150976.31;;;8.70;100.00
44926;BME280;30662;51.210;7.656;2023-04-28T07:27:12;150976.31;;;8.70;100.00
44926;BME280;30662;51.210;7.656;2023-04-28T07:29:38;150969.97;;;8.68;100.00
44926;BME280;30662;51.210;7.656;2023-04-28T07:32:04;150986.41;;;8.74;100.00
44926;BME280;30662;51.210;7.656;2023-04-28T07:34:34;150987.66;;;8.75;100.00
44926;BME280;30662;51.210;7.656;2023-04-28T07:37:00;150949.75;;;8.60;100.00
44926;BME280;30662;51.210;7.656;2023-04-28T07:39:27;150924.50;;;8.49;100.00
44926;BME280;30662;51.210;7.656;2023-04-28T07:41:53;150923.22;;;8.49;100.00
44926;BME280;30662;51.210;7.656;2023-04-28T07:44:20;150947.22;;;8.59;100.00
44926;BME280;30662;51.210;7.656;2023-04-28T07:46:46;150961.16;;;8.64;100.00
44926;BME280;30662;51.210;7.656;2023-04-28T07:49:12;150991.50;;;8.76;100.00
44926;BME280;30662;51.210;7.656;2023-04-28T07:51:37;151005.38;;;8.82;100.00
44926;BME280;30662;51.210;7.656;2023-04-28T07:54:03;151002.84;;;8.81;100.00
44926;BME280;30662;51.210;7.656;2023-04-28T07:56:29;151030.69;;;8.92;100.00
44926;BME280;30662;51.210;7.656;2023-04-28T07:58:55;151023.06;;;8.89;100.00
44926;BME280;30662;51.210;7.656;2023-04-28T08:01:21;151042.03;;;8.97;100.00
44926;BME280;30662;51.210;7.656;2023-04-28T08:03:47;151062.25;;;9.05;100.00
44926;BME280;30662;51.210;7.656;2023-04-28T08:06:14;151054.69;;;9.02;100.00
44926;BME280;30662;51.210;7.656;2023-04-28T08:08:40;151055.94;;;9.02;100.00
44926;BME280;30662;51.210;7.656;2023-04-28T08:11:06;151048.38;;;8.99;100.00
44926;BME280;30662;51.210;7.656;2023-04-28T08:13:33;151038.25;;;8.95;100.00
44926;BME280;30662;51.210;7.656;2023-04-28T08:15:59;151043.28;;;8.97;100.00
44926;BME280;30662;51.210;7.656;2023-04-28T08:18:26;151057.22;;;9.03;100.00
44926;BME280;30662;51.210;7.656;2023-04-28T08:20:52;151045.88;;;8.98;100.00
44926;BME280;30662;51.210;7.656;2023-04-28T08:23:18;151057.22;;;9.03;100.00
44926;BME280;30662;51.210;7.656;2023-04-28T08:25:45;151069.88;;;9.08;100.00
44926;BME280;30662;51.210;7.656;2023-04-28T08:28:12;151062.25;;;9.05;100.00
44926;BME280;30662;51.210;7.656;2023-04-28T08:30:38;151058.47;;;9.03;100.00
44926;BME280;30662;51.210;7.656;2023-04-28T08:33:04;151077.44;;;9.11;100.00
44926;BME280;30662;51.210;7.656;2023-04-28T08:35:32;151097.66;;;9.19;100.00
44926;BME280;30662;51.210;7.656;2023-04-28T08:37:59;151071.13;;;9.08;100.00
44926;BME280;30662;51.210;7.656;2023-04-28T08:40:25;151101.50;;;9.21;100.00
44926;BME280;30662;51.210;7.656;2023-04-28T08:42:54;151083.78;;;9.14;100.00
44926;BME280;30662;51.210;7.656;2023-04-28T08:45:22;151104.03;;;9.22;100.00
44926;BME280;30662;51.210;7.656;2023-04-28T08:47:50;151123.00;;;9.29;100.00
44926;BME280;30662;51.210;7.656;2023-04-28T08:50:20;151114.13;;;9.26;100.00
44926;BME280;30662;51.210;7.656;2023-04-28T08:52:51;151149.53;;;9.40;100.00
44926;BME280;30662;51.210;7.656;2023-04-28T08:55:17;151173.59;;;9.50;100.00
44926;BME280;30662;51.210;7.656;2023-04-28T08:57:45;151192.56;;;9.57;100.00
44926;BME280;30662;51.210;7.656;2023-04-28T09:00:12;151243.19;;;9.78;100.00
44926;BME280;30662;51.210;7.656;2023-04-28T09:02:39;151231.78;;;9.73;100.00
44926;BME280;30662;51.210;7.656;2023-04-28T09:05:07;151226.72;;;9.71;100.00
44926;BME280;30662;51.210;7.656;2023-04-28T09:07:34;151253.28;;;9.82;100.00
44926;BME280;30662;51.210;7.656;2023-04-28T09:10:23;151263.41;;;9.86;100.00
44926;BME280;30662;51.210;7.656;2023-04-28T09:12:53;151293.75;;;9.98;100.00
44926;BME280;30662;51.210;7.656;2023-04-28T09:15:30;151293.75;;;9.98;100.00
44926;BME280;30662;51.210;7.656;2023-04-28T09:18:03;151321.63;;;10.09;100.00
44926;BME280;30662;51.210;7.656;2023-04-28T09:20:30;151332.97;;;10.14;100.00
44926;BME280;30662;51.210;7.656;2023-04-28T09:23:15;151293.75;;;9.98;100.00
44926;BME280;30662;51.210;7.656;2023-04-28T09:26:01;151240.59;;;9.77;100.00
44926;BME280;30662;51.210;7.656;2023-04-28T09:28:28;151233.03;;;9.74;100.00
44926;BME280;30662;51.210;7.656;2023-04-28T09:30:54;151229.25;;;9.72;100.00
44926;BME280;30662;51.210;7.656;2023-04-28T09:33:20;151281.13;;;9.93;100.00
44926;BME280;30662;51.210;7.656;2023-04-28T09:35:47;151267.19;;;9.87;100.00
44926;BME280;30662;51.210;7.656;2023-04-28T09:38:14;151268.47;;;9.88;100.00
44926;BME280;30662;51.210;7.656;2023-04-28T09:40:51;151291.22;;;9.97;100.00
44926;BME280;30662;51.210;7.656;2023-04-28T09:43:29;151310.22;;;10.05;100.00
44926;BME280;30662;51.210;7.656;2023-04-28T09:45:58;151362.16;;;10.26;100.00
44926;BME280;30662;51.210;7.656;2023-04-28T09:48:32;151374.81;;;10.31;100.00
44926;BME280;30662;51.210;7.656;2023-04-28T09:51:03;151419.09;;;10.48;100.00
44926;BME280;30662;51.210;7.656;2023-04-28T09:53:31;151436.81;;;10.56;100.00
44926;BME280;30662;51.210;7.656;2023-04-28T09:55:59;151496.38;;;10.80;100.00
44926;BME280;30662;51.210;7.656;2023-04-28T09:58:26;151554.59;;;11.03;100.00
44926;BME280;30662;51.210;7.656;2023-04-28T10:00:57;151600.16;;;11.21;100.00
44926;BME280;30662;51.210;7.656;2023-04-28T10:03:25;151640.72;;;11.38;100.00
44926;BME280;30662;51.210;7.656;2023-04-28T10:05:56;151673.63;;;11.51;100.00
44926;BME280;30662;51.210;7.656;2023-04-28T10:08:23;151661.00;;;11.46;100.00
44926;BME280;30662;51.210;7.656;2023-04-28T10:10:50;151664.78;;;11.47;100.00
44926;BME280;30662;51.210;7.656;2023-04-28T10:13:20;151621.75;;;11.30;100.00
44926;BME280;30662;51.210;7.656;2023-04-28T10:15:48;151600.16;;;11.21;100.00
44926;BME280;30662;51.210;7.656;2023-04-28T10:18:15;151584.97;;;11.15;100.00
44926;BME280;30662;51.210;7.656;2023-04-28T10:20:45;151564.69;;;11.07;100.00
44926;BME280;30662;51.210;7.656;2023-04-28T10:25:58;151546.97;;;11.00;100.00
44926;BME280;30662;51.210;7.656;2023-04-28T10:28:25;151536.88;;;10.96;100.00
44926;BME280;30662;51.210;7.656;2023-04-28T10:31:11;151514.09;;;10.87;100.00
44926;BME280;30662;51.210;7.656;2023-04-28T10:33:37;151522.94;;;10.90;100.00
44926;BME280;30662;51.210;7.656;2023-04-28T10:36:04;151534.34;;;10.95;100.00
44926;BME280;30662;51.210;7.656;2023-04-28T10:38:30;151525.47;;;10.91;100.00
44926;BME280;30662;51.210;7.656;2023-04-28T10:40:56;151557.13;;;11.04;100.00
44926;BME280;30662;51.210;7.656;2023-04-28T10:43:35;151572.34;;;11.10;100.00
44926;BME280;30662;51.210;7.656;2023-04-28T10:46:04;151586.28;;;11.16;100.00
44926;BME280;30662;51.210;7.656;2023-04-28T10:56:24;151525.47;;;10.91;100.00
44926;BME280;30662;51.210;7.656;2023-04-28T11:08:52;151497.63;;;10.80;100.00
44926;BME280;30662;51.210;7.656;2023-04-28T11:11:29;151514.09;;;10.87;100.00
44926;BME280;30662;51.210;7.656;2023-04-28T11:16:51;151517.88;;;10.88;100.00
44926;BME280;30662;51.210;7.656;2023-04-28T11:19:22;151509.00;;;10.85;100.00
44926;BME280;30662;51.210;7.656;2023-04-28T11:21:54;151550.81;;;11.01;100.00
44926;BME280;30662;51.210;7.656;2023-04-28T11:24:24;151557.13;;;11.04;100.00
44926;BME280;30662;51.210;7.656;2023-04-28T11:26:50;151554.59;;;11.03;100.00
44926;BME280;30662;51.210;7.656;2023-04-28T11:29:17;151576.13;;;11.12;100.00
44926;BME280;30662;51.210;7.656;2023-04-28T11:31:49;151555.84;;;11.03;100.00
44926;BME280;30662;51.210;7.656;2023-04-28T11:34:20;151543.19;;;10.98;100.00
44926;BME280;30662;51.210;7.656;2023-04-28T11:36:46;151559.66;;;11.05;100.00
44926;BME280;30662;51.210;7.656;2023-04-28T11:39:12;151530.50;;;10.93;100.00
44926;BME280;30662;51.210;7.656;2023-04-28T11:41:41;151539.41;;;10.97;100.00
44926;BME280;30662;51.210;7.656;2023-04-28T11:44:11;151591.31;;;11.18;100.00
44926;BME280;30662;51.210;7.656;2023-04-28T11:46:58;151597.63;;;11.20;100.00
44926;BME280;30662;51.210;7.656;2023-04-28T11:49:28;151636.91;;;11.36;100.00
44926;BME280;30662;51.210;7.656;2023-04-28T11:51:56;151655.88;;;11.44;100.00
44926;BME280;30662;51.210;7.656;2023-04-28T11:54:24;151668.56;;;11.49;100.00
44926;BME280;30662;51.210;7.656;2023-04-28T11:56:52;151673.63;;;11.51;100.00
44926;BME280;30662;51.210;7.656;2023-04-28T11:59:26;151667.31;;;11.48;100.00
44926;BME280;30662;51.210;7.656;2023-04-28T12:02:25;151723.06;;;11.71;100.00
44926;BME280;30662;51.210;7.656;2023-04-28T12:04:55;151776.31;;;11.92;100.00
44926;BME280;30662;51.210;7.656;2023-04-28T12:07:21;151801.69;;;12.02;100.00
44926;BME280;30662;51.210;7.656;2023-04-28T12:12:36;151747.16;;;11.80;100.00
44926;BME280;30662;51.210;7.656;2023-04-28T12:15:06;151735.72;;;11.76;100.00
44926;BME280;30662;51.210;7.656;2023-04-28T12:17:35;151756.03;;;11.84;100.00
44926;BME280;30662;51.210;7.656;2023-04-28T12:20:04;151744.56;;;11.79;100.00
44926;BME280;30662;51.210;7.656;2023-04-28T12:22:48;151776.31;;;11.92;100.00
44926;BME280;30662;51.210;7.656;2023-04-28T12:25:16;151797.84;;;12.01;100.00
44926;BME280;30662;51.210;7.656;2023-04-28T12:28:02;151766.22;;;11.88;100.00
44926;BME280;30662;51.210;7.656;2023-04-28T12:30:32;151754.78;;;11.83;100.00
44926;BME280;30662;51.210;7.656;2023-04-28T12:32:59;151743.31;;;11.79;100.00
44926;BME280;30662;51.210;7.656;2023-04-28T12:35:27;151733.22;;;11.75;100.00
44926;BME280;30662;51.210;7.656;2023-04-28T12:37:54;151734.47;;;11.75;100.00
44926;BME280;30662;51.210;7.656;2023-04-28T12:40:21;151745.84;;;11.80;100.00
44926;BME280;30662;51.210;7.656;2023-04-28T12:42:48;151758.56;;;11.85;100.00
44926;BME280;30662;51.210;7.656;2023-04-28T12:45:15;151706.56;;;11.64;100.00
44926;BME280;30662;51.210;7.656;2023-04-28T12:47:41;151772.53;;;11.91;100.00
44926;BME280;30662;51.210;7.656;2023-04-28T12:50:08;151796.59;;;12.00;100.00
44926;BME280;30662;51.210;7.656;2023-04-28T12:52:34;151838.44;;;12.17;100.00
44926;BME280;30662;51.210;7.656;2023-04-28T12:55:02;151852.34;;;12.23;100.00
44926;BME280;30662;51.210;7.656;2023-04-28T12:57:29;151904.31;;;12.43;100.00
44926;BME280;30662;51.210;7.656;2023-04-28T12:59:55;151909.38;;;12.46;100.00
44926;BME280;30662;51.210;7.656;2023-04-28T13:02:22;151913.22;;;12.47;100.00
44926;BME280;30662;51.210;7.656;2023-04-28T13:04:48;151871.34;;;12.30;100.00
44926;BME280;30662;51.210;7.656;2023-04-28T13:07:14;151849.81;;;12.22;100.00
44926;BME280;30662;51.210;7.656;2023-04-28T13:09:41;151837.13;;;12.17;100.00
44926;BME280;30662;51.210;7.656;2023-04-28T13:12:09;151802.97;;;12.03;100.00
44926;BME280;30662;51.210;7.656;2023-04-28T13:14:36;151806.75;;;12.04;100.00
44926;BME280;30662;51.210;7.656;2023-04-28T13:17:02;151871.34;;;12.30;100.00